sensor_id;sensor_type;location;lat;lon;timestamp;temperature;humidity
55436;DHT22;41307;53.142;6.430;2022-07-23T00:01:33;14.70;99.90
55436;DHT22;41307;53.142;6.430;2022-07-23T00:03:59;14.70;99.90
55436;DHT22;41307;53.142;6.430;2022-07-23T00:06:25;14.80;99.90
55436;DHT22;41307;53.142;6.430;2022-07-23T00:08:51;14.80;99.90
55436;DHT22;41307;53.142;6.430;2022-07-23T00:11:17;14.70;99.90
55436;DHT22;41307;53.142;6.430;2022-07-23T00:13:43;14.80;99.90
55436;DHT22;41307;53.142;6.430;2022-07-23T00:16:09;14.80;99.90
55436;DHT22;41307;53.142;6.430;2022-07-23T00:18:35;14.80;99.90
55436;DHT22;41307;53.142;6.430;2022-07-23T00:21:01;14.70;99.90
55436;DHT22;41307;53.142;6.430;2022-07-23T00:23:27;14.70;99.90
55436;DHT22;41307;53.142;6.430;2022-07-23T00:25:54;14.70;99.90
55436;DHT22;41307;53.142;6.430;2022-07-23T00:28:20;14.90;99.90
55436;DHT22;41307;53.142;6.430;2022-07-23T00:30:46;14.70;99.90
55436;DHT22;41307;53.142;6.430;2022-07-23T00:33:12;14.70;99.90
55436;DHT22;41307;53.142;6.430;2022-07-23T00:35:39;14.60;99.90
55436;DHT22;41307;53.142;6.430;2022-07-23T00:38:09;14.60;99.90
55436;DHT22;41307;53.142;6.430;2022-07-23T00:40:36;14.60;99.90
55436;DHT22;41307;53.142;6.430;2022-07-23T00:43:03;14.50;99.90
55436;DHT22;41307;53.142;6.430;2022-07-23T00:45:29;14.60;99.90
55436;DHT22;41307;53.142;6.430;2022-07-23T00:47:55;14.60;99.90
55436;DHT22;41307;53.142;6.430;2022-07-23T00:50:21;14.40;99.90
55436;DHT22;41307;53.142;6.430;2022-07-23T00:52:47;14.30;99.90
55436;DHT22;41307;53.142;6.430;2022-07-23T00:55:13;14.30;99.90
55436;DHT22;41307;53.142;6.430;2022-07-23T00:57:40;14.30;99.90
55436;DHT22;41307;53.142;6.430;2022-07-23T01:00:09;14.20;99.90
55436;DHT22;41307;53.142;6.430;2022-07-23T01:02:36;14.10;99.90
55436;DHT22;41307;53.142;6.430;2022-07-23T01:05:02;14.10;99.90
55436;DHT22;41307;53.142;6.430;2022-07-23T01:07:28;14.00;99.90
55436;DHT22;41307;53.142;6.430;2022-07-23T01:09:54;14.00;99.90
55436;DHT22;41307;53.142;6.430;2022-07-23T01:12:20;14.00;99.90
55436;DHT22;41307;53.142;6.430;2022-07-23T01:14:54;13.90;99.90
55436;DHT22;41307;53.142;6.430;2022-07-23T01:17:20;13.90;99.90
55436;DHT22;41307;53.142;6.430;2022-07-23T01:19:46;13.70;99.90
55436;DHT22;41307;53.142;6.430;2022-07-23T01:22:12;13.70;99.90
55436;DHT22;41307;53.142;6.430;2022-07-23T01:24:38;13.60;99.90
55436;DHT22;41307;53.142;6.430;2022-07-23T01:27:04;13.60;99.90
55436;DHT22;41307;53.142;6.430;2022-07-23T01:29:31;13.60;99.90
55436;DHT22;41307;53.142;6.430;2022-07-23T01:31:56;13.50;99.90
55436;DHT22;41307;53.142;6.430;2022-07-23T01:34:22;13.60;99.90
55436;DHT22;41307;53.142;6.430;2022-07-23T01:36:48;13.50;99.90
55436;DHT22;41307;53.142;6.430;2022-07-23T01:39:13;13.40;99.90
55436;DHT22;41307;53.142;6.430;2022-07-23T01:41:39;13.40;99.90
55436;DHT22;41307;53.142;6.430;2022-07-23T01:44:06;13.40;99.90
55436;DHT22;41307;53.142;6.430;2022-07-23T01:46:32;13.30;99.90
55436;DHT22;41307;53.142;6.430;2022-07-23T01:48:58;13.20;99.90
55436;DHT22;41307;53.142;6.430;2022-07-23T01:51:23;13.20;99.90
55436;DHT22;41307;53.142;6.430;2022-07-23T01:53:49;13.30;99.90
55436;DHT22;41307;53.142;6.430;2022-07-23T01:56:17;13.20;99.90
55436;DHT22;41307;53.142;6.430;2022-07-23T01:58:44;13.10;99.90
55436;DHT22;41307;53.142;6.430;2022-07-23T02:01:10;13.10;99.90
55436;DHT22;41307;53.142;6.430;2022-07-23T02:03:35;13.00;99.90
55436;DHT22;41307;53.142;6.430;2022-07-23T02:06:01;13.00;99.90
55436;DHT22;41307;53.142;6.430;2022-07-23T02:08:29;13.00;99.90
55436;DHT22;41307;53.142;6.430;2022-07-23T02:10:54;13.00;99.90
55436;DHT22;41307;53.142;6.430;2022-07-23T02:13:20;13.00;99.90
55436;DHT22;41307;53.142;6.430;2022-07-23T02:15:47;12.80;99.90
55436;DHT22;41307;53.142;6.430;2022-07-23T02:18:13;12.90;99.90
55436;DHT22;41307;53.142;6.430;2022-07-23T02:20:38;12.80;99.90
55436;DHT22;41307;53.142;6.430;2022-07-23T02:23:05;12.80;99.90
55436;DHT22;41307;53.142;6.430;2022-07-23T02:25:32;12.80;99.90
55436;DHT22;41307;53.142;6.430;2022-07-23T02:27:58;12.70;99.90
55436;DHT22;41307;53.142;6.430;2022-07-23T02:30:24;12.70;99.90
55436;DHT22;41307;53.142;6.430;2022-07-23T02:32:49;12.70;99.90
55436;DHT22;41307;53.142;6.430;2022-07-23T02:35:15;12.70;99.90
55436;DHT22;41307;53.142;6.430;2022-07-23T02:37:41;12.70;99.90
55436;DHT22;41307;53.142;6.430;2022-07-23T02:40:07;12.70;99.90
55436;DHT22;41307;53.142;6.430;2022-07-23T02:42:33;12.70;99.90
55436;DHT22;41307;53.142;6.430;2022-07-23T02:44:59;12.70;99.90
55436;DHT22;41307;53.142;6.430;2022-07-23T02:47:24;12.70;99.90
55436;DHT22;41307;53.142;6.430;2022-07-23T02:49:50;12.70;99.90
55436;DHT22;41307;53.142;6.430;2022-07-23T02:52:16;12.60;99.90
55436;DHT22;41307;53.142;6.430;2022-07-23T02:54:42;12.60;99.90
55436;DHT22;41307;53.142;6.430;2022-07-23T02:57:07;12.60;99.90
55436;DHT22;41307;53.142;6.430;2022-07-23T02:59:33;12.60;99.90
55436;DHT22;41307;53.142;6.430;2022-07-23T03:01:59;12.50;99.90
55436;DHT22;41307;53.142;6.430;2022-07-23T03:04:24;12.50;99.90
55436;DHT22;41307;53.142;6.430;2022-07-23T03:06:50;12.50;99.90
55436;DHT22;41307;53.142;6.430;2022-07-23T03:09:16;12.70;99.90
55436;DHT22;41307;53.142;6.430;2022-07-23T03:11:41;12.50;99.90
55436;DHT22;41307;53.142;6.430;2022-07-23T03:14:07;12.40;99.90
55436;DHT22;41307;53.142;6.430;2022-07-23T03:16:33;12.60;99.90
55436;DHT22;41307;53.142;6.430;2022-07-23T03:18:59;12.40;99.90
55436;DHT22;41307;53.142;6.430;2022-07-23T03:21:24;12.40;99.90
55436;DHT22;41307;53.142;6.430;2022-07-23T03:23:50;12.30;99.90
55436;DHT22;41307;53.142;6.430;2022-07-23T03:26:16;12.30;99.90
55436;DHT22;41307;53.142;6.430;2022-07-23T03:28:42;12.30;99.90
55436;DHT22;41307;53.142;6.430;2022-07-23T03:31:08;12.30;99.90
55436;DHT22;41307;53.142;6.430;2022-07-23T03:33:34;12.20;99.90
55436;DHT22;41307;53.142;6.430;2022-07-23T03:35:59;12.30;99.90
55436;DHT22;41307;53.142;6.430;2022-07-23T03:38:26;12.20;99.90
55436;DHT22;41307;53.142;6.430;2022-07-23T03:40:51;12.20;99.90
55436;DHT22;41307;53.142;6.430;2022-07-23T03:43:17;12.10;99.90
55436;DHT22;41307;53.142;6.430;2022-07-23T03:45:43;12.50;99.90
55436;DHT22;41307;53.142;6.430;2022-07-23T03:48:08;12.30;99.90
55436;DHT22;41307;53.142;6.430;2022-07-23T03:50:36;12.30;99.90
55436;DHT22;41307;53.142;6.430;2022-07-23T03:53:02;12.40;99.90
55436;DHT22;41307;53.142;6.430;2022-07-23T03:55:28;12.40;99.90
55436;DHT22;41307;53.142;6.430;2022-07-23T03:57:54;12.40;99.90
55436;DHT22;41307;53.142;6.430;2022-07-23T04:00:20;12.40;99.90
55436;DHT22;41307;53.142;6.430;2022-07-23T04:02:45;12.60;99.90
55436;DHT22;41307;53.142;6.430;2022-07-23T04:05:11;12.50;99.90
55436;DHT22;41307;53.142;6.430;2022-07-23T04:07:37;12.80;99.90
55436;DHT22;41307;53.142;6.430;2022-07-23T04:10:03;12.60;99.90
55436;DHT22;41307;53.142;6.430;2022-07-23T04:12:29;12.60;99.90
55436;DHT22;41307;53.142;6.430;2022-07-23T04:14:54;12.70;99.90
55436;DHT22;41307;53.142;6.430;2022-07-23T04:17:20;12.70;99.90
55436;DHT22;41307;53.142;6.430;2022-07-23T04:19:46;12.70;99.90
55436;DHT22;41307;53.142;6.430;2022-07-23T04:22:12;12.70;99.90
55436;DHT22;41307;53.142;6.430;2022-07-23T04:24:41;12.70;99.90
55436;DHT22;41307;53.142;6.430;2022-07-23T04:27:06;12.80;99.90
55436;DHT22;41307;53.142;6.430;2022-07-23T04:29:32;12.90;99.90
55436;DHT22;41307;53.142;6.430;2022-07-23T04:31:58;12.90;99.90
55436;DHT22;41307;53.142;6.430;2022-07-23T04:34:24;13.00;99.90
55436;DHT22;41307;53.142;6.430;2022-07-23T04:36:52;13.00;99.90
55436;DHT22;41307;53.142;6.430;2022-07-23T04:39:18;13.10;99.90
55436;DHT22;41307;53.142;6.430;2022-07-23T04:41:44;13.40;99.90
55436;DHT22;41307;53.142;6.430;2022-07-23T04:44:10;13.30;99.90
55436;DHT22;41307;53.142;6.430;2022-07-23T04:46:35;13.40;99.90
55436;DHT22;41307;53.142;6.430;2022-07-23T04:49:01;13.50;99.90
55436;DHT22;41307;53.142;6.430;2022-07-23T04:51:27;13.60;99.90
55436;DHT22;41307;53.142;6.430;2022-07-23T04:53:54;13.50;99.90
55436;DHT22;41307;53.142;6.430;2022-07-23T04:56:20;13.60;99.90
55436;DHT22;41307;53.142;6.430;2022-07-23T04:58:46;13.60;99.90
55436;DHT22;41307;53.142;6.430;2022-07-23T05:01:12;13.70;99.90
55436;DHT22;41307;53.142;6.430;2022-07-23T05:03:37;13.60;99.90
55436;DHT22;41307;53.142;6.430;2022-07-23T05:06:06;14.10;99.90
55436;DHT22;41307;53.142;6.430;2022-07-23T05:08:32;14.00;99.90
55436;DHT22;41307;53.142;6.430;2022-07-23T05:10:58;13.80;99.90
55436;DHT22;41307;53.142;6.430;2022-07-23T05:13:23;13.90;99.90
55436;DHT22;41307;53.142;6.430;2022-07-23T05:15:49;13.90;99.90
55436;DHT22;41307;53.142;6.430;2022-07-23T05:18:15;14.10;99.90
55436;DHT22;41307;53.142;6.430;2022-07-23T05:20:41;14.30;99.90
55436;DHT22;41307;53.142;6.430;2022-07-23T05:23:07;14.50;99.90
55436;DHT22;41307;53.142;6.430;2022-07-23T05:25:32;14.60;99.90
55436;DHT22;41307;53.142;6.430;2022-07-23T05:27:58;14.70;99.90
55436;DHT22;41307;53.142;6.430;2022-07-23T05:30:24;14.90;99.90
55436;DHT22;41307;53.142;6.430;2022-07-23T05:32:50;15.20;99.90
55436;DHT22;41307;53.142;6.430;2022-07-23T05:35:16;15.80;99.90
55436;DHT22;41307;53.142;6.430;2022-07-23T05:37:42;16.70;99.90
55436;DHT22;41307;53.142;6.430;2022-07-23T05:40:09;17.80;99.90
55436;DHT22;41307;53.142;6.430;2022-07-23T05:42:37;19.00;99.90
55436;DHT22;41307;53.142;6.430;2022-07-23T05:45:03;20.20;99.90
55436;DHT22;41307;53.142;6.430;2022-07-23T05:47:48;21.00;99.90
55436;DHT22;41307;53.142;6.430;2022-07-23T05:50:15;21.90;99.90
55436;DHT22;41307;53.142;6.430;2022-07-23T05:52:42;22.60;99.90
55436;DHT22;41307;53.142;6.430;2022-07-23T05:55:08;23.20;99.90
55436;DHT22;41307;53.142;6.430;2022-07-23T05:57:35;23.80;99.90
55436;DHT22;41307;53.142;6.430;2022-07-23T06:00:02;24.30;99.90
55436;DHT22;41307;53.142;6.430;2022-07-23T06:02:28;24.80;99.90
55436;DHT22;41307;53.142;6.430;2022-07-23T06:04:54;25.20;99.90
55436;DHT22;41307;53.142;6.430;2022-07-23T06:07:19;25.60;99.90
55436;DHT22;41307;53.142;6.430;2022-07-23T06:09:45;26.20;99.90
55436;DHT22;41307;53.142;6.430;2022-07-23T06:12:12;26.50;97.50
55436;DHT22;41307;53.142;6.430;2022-07-23T06:14:38;26.40;95.50
55436;DHT22;41307;53.142;6.430;2022-07-23T06:17:04;26.30;94.50
55436;DHT22;41307;53.142;6.430;2022-07-23T06:19:29;26.30;94.00
55436;DHT22;41307;53.142;6.430;2022-07-23T06:21:55;26.60;92.60
55436;DHT22;41307;53.142;6.430;2022-07-23T06:24:21;25.90;91.80
55436;DHT22;41307;53.142;6.430;2022-07-23T06:26:46;25.60;92.20
55436;DHT22;41307;53.142;6.430;2022-07-23T06:29:13;24.90;93.40
55436;DHT22;41307;53.142;6.430;2022-07-23T06:31:39;25.10;94.00
55436;DHT22;41307;53.142;6.430;2022-07-23T06:34:05;25.70;93.20
55436;DHT22;41307;53.142;6.430;2022-07-23T06:36:33;26.20;92.10
55436;DHT22;41307;53.142;6.430;2022-07-23T06:38:59;26.70;91.10
55436;DHT22;41307;53.142;6.430;2022-07-23T06:41:25;26.90;88.70
55436;DHT22;41307;53.142;6.430;2022-07-23T06:43:50;27.10;85.10
55436;DHT22;41307;53.142;6.430;2022-07-23T06:46:16;27.40;84.00
55436;DHT22;41307;53.142;6.430;2022-07-23T06:48:42;27.50;81.60
55436;DHT22;41307;53.142;6.430;2022-07-23T06:51:08;27.60;81.30
55436;DHT22;41307;53.142;6.430;2022-07-23T06:53:34;27.90;78.80
55436;DHT22;41307;53.142;6.430;2022-07-23T06:55:59;27.30;78.00
55436;DHT22;41307;53.142;6.430;2022-07-23T06:58:25;26.90;79.00
55436;DHT22;41307;53.142;6.430;2022-07-23T07:00:51;26.30;80.10
55436;DHT22;41307;53.142;6.430;2022-07-23T07:03:18;26.40;79.70
55436;DHT22;41307;53.142;6.430;2022-07-23T07:05:44;25.90;78.80
55436;DHT22;41307;53.142;6.430;2022-07-23T07:08:10;25.40;78.10
55436;DHT22;41307;53.142;6.430;2022-07-23T07:10:35;24.70;78.70
55436;DHT22;41307;53.142;6.430;2022-07-23T07:13:01;23.90;82.10
55436;DHT22;41307;53.142;6.430;2022-07-23T07:15:27;23.30;85.70
55436;DHT22;41307;53.142;6.430;2022-07-23T07:17:52;22.90;89.90
55436;DHT22;41307;53.142;6.430;2022-07-23T07:20:18;22.60;90.80
55436;DHT22;41307;53.142;6.430;2022-07-23T07:22:44;22.20;92.00
55436;DHT22;41307;53.142;6.430;2022-07-23T07:25:10;22.30;92.90
55436;DHT22;41307;53.142;6.430;2022-07-23T07:27:35;22.60;93.30
55436;DHT22;41307;53.142;6.430;2022-07-23T07:30:03;23.20;91.60
55436;DHT22;41307;53.142;6.430;2022-07-23T07:32:28;24.00;88.70
55436;DHT22;41307;53.142;6.430;2022-07-23T07:34:55;24.40;84.60
55436;DHT22;41307;53.142;6.430;2022-07-23T07:37:20;25.10;82.60
55436;DHT22;41307;53.142;6.430;2022-07-23T07:39:46;25.90;80.40
55436;DHT22;41307;53.142;6.430;2022-07-23T07:42:12;26.40;77.70
55436;DHT22;41307;53.142;6.430;2022-07-23T07:44:37;26.80;75.10
55436;DHT22;41307;53.142;6.430;2022-07-23T07:47:03;26.90;73.10
55436;DHT22;41307;53.142;6.430;2022-07-23T07:49:29;27.10;72.60
55436;DHT22;41307;53.142;6.430;2022-07-23T07:51:55;27.40;70.90
55436;DHT22;41307;53.142;6.430;2022-07-23T07:54:20;27.60;69.20
55436;DHT22;41307;53.142;6.430;2022-07-23T07:56:46;27.40;69.30
55436;DHT22;41307;53.142;6.430;2022-07-23T07:59:13;27.00;68.80
55436;DHT22;41307;53.142;6.430;2022-07-23T08:01:40;26.20;68.50
55436;DHT22;41307;53.142;6.430;2022-07-23T08:04:06;25.40;68.90
55436;DHT22;41307;53.142;6.430;2022-07-23T08:06:32;25.10;69.70
55436;DHT22;41307;53.142;6.430;2022-07-23T08:08:57;25.30;71.20
55436;DHT22;41307;53.142;6.430;2022-07-23T08:11:24;25.90;70.10
55436;DHT22;41307;53.142;6.430;2022-07-23T08:13:50;26.30;68.60
55436;DHT22;41307;53.142;6.430;2022-07-23T08:16:16;26.90;68.10
55436;DHT22;41307;53.142;6.430;2022-07-23T08:18:42;27.30;67.30
55436;DHT22;41307;53.142;6.430;2022-07-23T08:21:07;27.30;66.90
55436;DHT22;41307;53.142;6.430;2022-07-23T08:23:33;26.90;66.70
55436;DHT22;41307;53.142;6.430;2022-07-23T08:26:00;26.20;68.10
55436;DHT22;41307;53.142;6.430;2022-07-23T08:28:26;25.70;68.60
55436;DHT22;41307;53.142;6.430;2022-07-23T08:30:52;25.10;69.60
55436;DHT22;41307;53.142;6.430;2022-07-23T08:33:18;24.60;70.80
55436;DHT22;41307;53.142;6.430;2022-07-23T08:35:47;24.20;72.20
55436;DHT22;41307;53.142;6.430;2022-07-23T08:38:17;24.30;72.30
55436;DHT22;41307;53.142;6.430;2022-07-23T08:40:48;24.70;72.30
55436;DHT22;41307;53.142;6.430;2022-07-23T08:43:18;24.90;71.30
55436;DHT22;41307;53.142;6.430;2022-07-23T08:45:47;24.80;72.20
55436;DHT22;41307;53.142;6.430;2022-07-23T08:48:21;24.90;72.10
55436;DHT22;41307;53.142;6.430;2022-07-23T08:50:52;24.80;71.80
55436;DHT22;41307;53.142;6.430;2022-07-23T08:53:21;24.60;73.60
55436;DHT22;41307;53.142;6.430;2022-07-23T08:55:48;24.70;73.60
55436;DHT22;41307;53.142;6.430;2022-07-23T08:58:15;24.50;73.30
55436;DHT22;41307;53.142;6.430;2022-07-23T09:00:42;24.40;73.00
55436;DHT22;41307;53.142;6.430;2022-07-23T09:03:25;23.90;73.00
55436;DHT22;41307;53.142;6.430;2022-07-23T09:05:52;23.70;74.20
55436;DHT22;41307;53.142;6.430;2022-07-23T09:08:23;23.40;75.90
55436;DHT22;41307;53.142;6.430;2022-07-23T09:11:01;23.40;76.60
55436;DHT22;41307;53.142;6.430;2022-07-23T09:13:49;23.30;77.50
55436;DHT22;41307;53.142;6.430;2022-07-23T09:16:33;23.20;78.00
55436;DHT22;41307;53.142;6.430;2022-07-23T09:19:02;23.00;78.30
55436;DHT22;41307;53.142;6.430;2022-07-23T09:21:32;22.80;79.90
55436;DHT22;41307;53.142;6.430;2022-07-23T09:24:00;22.90;80.70
55436;DHT22;41307;53.142;6.430;2022-07-23T09:29:18;22.90;82.40
55436;DHT22;41307;53.142;6.430;2022-07-23T09:31:52;22.90;82.50
55436;DHT22;41307;53.142;6.430;2022-07-23T09:34:25;22.90;81.60
55436;DHT22;41307;53.142;6.430;2022-07-23T09:36:58;23.00;82.70
55436;DHT22;41307;53.142;6.430;2022-07-23T09:39:32;22.80;81.30
55436;DHT22;41307;53.142;6.430;2022-07-23T09:42:16;22.80;82.90
55436;DHT22;41307;53.142;6.430;2022-07-23T09:44:44;23.00;81.90
55436;DHT22;41307;53.142;6.430;2022-07-23T09:47:14;23.20;82.10
55436;DHT22;41307;53.142;6.430;2022-07-23T09:49:39;23.50;81.50
55436;DHT22;41307;53.142;6.430;2022-07-23T09:52:05;23.40;81.00
55436;DHT22;41307;53.142;6.430;2022-07-23T09:54:36;23.40;81.20
55436;DHT22;41307;53.142;6.430;2022-07-23T09:57:13;23.40;81.40
55436;DHT22;41307;53.142;6.430;2022-07-23T09:59:40;23.10;82.30
55436;DHT22;41307;53.142;6.430;2022-07-23T10:02:08;22.90;83.10
55436;DHT22;41307;53.142;6.430;2022-07-23T10:04:35;22.70;84.50
55436;DHT22;41307;53.142;6.430;2022-07-23T10:07:02;22.60;85.40
55436;DHT22;41307;53.142;6.430;2022-07-23T10:09:34;22.50;85.50
55436;DHT22;41307;53.142;6.430;2022-07-23T10:12:02;22.60;85.80
55436;DHT22;41307;53.142;6.430;2022-07-23T10:14:49;22.60;86.10
55436;DHT22;41307;53.142;6.430;2022-07-23T10:17:16;22.60;85.60
55436;DHT22;41307;53.142;6.430;2022-07-23T10:19:43;22.50;85.60
55436;DHT22;41307;53.142;6.430;2022-07-23T10:22:14;22.50;86.70
55436;DHT22;41307;53.142;6.430;2022-07-23T10:24:58;22.70;86.80
55436;DHT22;41307;53.142;6.430;2022-07-23T10:30:22;23.20;86.10
55436;DHT22;41307;53.142;6.430;2022-07-23T10:38:25;23.10;85.50
55436;DHT22;41307;53.142;6.430;2022-07-23T10:41:02;22.90;87.20
55436;DHT22;41307;53.142;6.430;2022-07-23T10:43:29;22.80;87.80
55436;DHT22;41307;53.142;6.430;2022-07-23T10:45:56;22.60;89.30
55436;DHT22;41307;53.142;6.430;2022-07-23T10:48:26;22.60;90.10
55436;DHT22;41307;53.142;6.430;2022-07-23T10:51:12;22.60;89.90
55436;DHT22;41307;53.142;6.430;2022-07-23T10:59:20;22.60;89.80
55436;DHT22;41307;53.142;6.430;2022-07-23T11:01:45;22.50;90.10
55436;DHT22;41307;53.142;6.430;2022-07-23T11:04:11;22.40;90.90
55436;DHT22;41307;53.142;6.430;2022-07-23T11:09:43;22.00;92.00
55436;DHT22;41307;53.142;6.430;2022-07-23T11:15:10;21.90;93.50
55436;DHT22;41307;53.142;6.430;2022-07-23T11:17:58;22.00;95.40
55436;DHT22;41307;53.142;6.430;2022-07-23T11:20:27;22.20;95.00
55436;DHT22;41307;53.142;6.430;2022-07-23T11:22:59;22.30;94.70
55436;DHT22;41307;53.142;6.430;2022-07-23T11:27:54;22.70;94.90
55436;DHT22;41307;53.142;6.430;2022-07-23T11:32:51;23.00;94.10
55436;DHT22;41307;53.142;6.430;2022-07-23T11:35:23;23.10;93.60
55436;DHT22;41307;53.142;6.430;2022-07-23T11:37:49;23.30;93.50
55436;DHT22;41307;53.142;6.430;2022-07-23T11:40:20;23.20;93.40
55436;DHT22;41307;53.142;6.430;2022-07-23T11:43:00;23.30;93.10
55436;DHT22;41307;53.142;6.430;2022-07-23T11:45:31;23.50;93.20
55436;DHT22;41307;53.142;6.430;2022-07-23T11:48:01;23.70;93.00
55436;DHT22;41307;53.142;6.430;2022-07-23T11:50:27;24.00;92.70
55436;DHT22;41307;53.142;6.430;2022-07-23T11:52:54;24.40;91.70
55436;DHT22;41307;53.142;6.430;2022-07-23T11:55:20;24.60;91.10
55436;DHT22;41307;53.142;6.430;2022-07-23T11:57:47;24.60;90.70
55436;DHT22;41307;53.142;6.430;2022-07-23T12:00:24;24.80;90.10
55436;DHT22;41307;53.142;6.430;2022-07-23T12:02:58;24.60;90.20
55436;DHT22;41307;53.142;6.430;2022-07-23T12:05:34;24.50;90.40
55436;DHT22;41307;53.142;6.430;2022-07-23T12:08:02;24.50;90.50
55436;DHT22;41307;53.142;6.430;2022-07-23T12:10:38;24.50;90.60
55436;DHT22;41307;53.142;6.430;2022-07-23T12:13:18;24.50;90.30
55436;DHT22;41307;53.142;6.430;2022-07-23T12:15:50;24.80;90.20
55436;DHT22;41307;53.142;6.430;2022-07-23T12:18:21;25.00;90.20
55436;DHT22;41307;53.142;6.430;2022-07-23T12:20:50;25.20;88.40
55436;DHT22;41307;53.142;6.430;2022-07-23T12:23:18;25.40;88.30
55436;DHT22;41307;53.142;6.430;2022-07-23T12:25:46;25.50;87.80
55436;DHT22;41307;53.142;6.430;2022-07-23T12:28:26;25.50;85.80
55436;DHT22;41307;53.142;6.430;2022-07-23T12:30:54;25.40;85.40
55436;DHT22;41307;53.142;6.430;2022-07-23T12:33:36;25.20;86.10
55436;DHT22;41307;53.142;6.430;2022-07-23T12:36:06;25.10;86.90
55436;DHT22;41307;53.142;6.430;2022-07-23T12:38:39;24.80;87.00
55436;DHT22;41307;53.142;6.430;2022-07-23T12:41:05;24.80;88.40
55436;DHT22;41307;53.142;6.430;2022-07-23T12:43:36;24.70;87.70
55436;DHT22;41307;53.142;6.430;2022-07-23T12:46:05;24.40;88.50
55436;DHT22;41307;53.142;6.430;2022-07-23T12:48:53;24.20;87.80
55436;DHT22;41307;53.142;6.430;2022-07-23T12:51:31;24.30;89.00
55436;DHT22;41307;53.142;6.430;2022-07-23T12:54:06;24.30;89.70
55436;DHT22;41307;53.142;6.430;2022-07-23T12:56:35;24.40;90.00
55436;DHT22;41307;53.142;6.430;2022-07-23T13:01:36;24.80;88.50
55436;DHT22;41307;53.142;6.430;2022-07-23T13:04:17;24.80;87.30
55436;DHT22;41307;53.142;6.430;2022-07-23T13:06:47;24.70;87.80
55436;DHT22;41307;53.142;6.430;2022-07-23T13:09:19;24.50;87.90
55436;DHT22;41307;53.142;6.430;2022-07-23T13:11:46;24.30;86.40
55436;DHT22;41307;53.142;6.430;2022-07-23T13:14:13;24.20;87.70
55436;DHT22;41307;53.142;6.430;2022-07-23T13:16:39;24.00;88.30
55436;DHT22;41307;53.142;6.430;2022-07-23T13:19:06;24.00;88.70
55436;DHT22;41307;53.142;6.430;2022-07-23T13:21:35;24.00;88.40
55436;DHT22;41307;53.142;6.430;2022-07-23T13:24:00;24.00;88.50
55436;DHT22;41307;53.142;6.430;2022-07-23T13:26:27;24.20;87.90
55436;DHT22;41307;53.142;6.430;2022-07-23T13:28:53;24.20;87.70
55436;DHT22;41307;53.142;6.430;2022-07-23T13:31:19;24.30;89.00
55436;DHT22;41307;53.142;6.430;2022-07-23T13:33:45;24.30;87.50
55436;DHT22;41307;53.142;6.430;2022-07-23T13:36:11;24.40;86.60
55436;DHT22;41307;53.142;6.430;2022-07-23T13:38:37;24.30;86.20
55436;DHT22;41307;53.142;6.430;2022-07-23T13:41:04;24.20;86.00
55436;DHT22;41307;53.142;6.430;2022-07-23T13:43:30;24.30;86.80
55436;DHT22;41307;53.142;6.430;2022-07-23T13:45:56;24.20;86.40
55436;DHT22;41307;53.142;6.430;2022-07-23T13:48:22;24.20;87.00
55436;DHT22;41307;53.142;6.430;2022-07-23T13:50:49;24.10;86.60
55436;DHT22;41307;53.142;6.430;2022-07-23T13:53:17;24.20;86.50
55436;DHT22;41307;53.142;6.430;2022-07-23T13:55:44;24.10;86.60
55436;DHT22;41307;53.142;6.430;2022-07-23T13:58:11;24.20;87.60
55436;DHT22;41307;53.142;6.430;2022-07-23T14:00:45;24.30;87.80
55436;DHT22;41307;53.142;6.430;2022-07-23T14:03:11;24.40;86.80
55436;DHT22;41307;53.142;6.430;2022-07-23T14:05:37;24.40;88.10
55436;DHT22;41307;53.142;6.430;2022-07-23T14:08:03;24.50;87.70
55436;DHT22;41307;53.142;6.430;2022-07-23T14:10:29;24.60;88.00
55436;DHT22;41307;53.142;6.430;2022-07-23T14:12:55;24.80;87.90
55436;DHT22;41307;53.142;6.430;2022-07-23T14:15:24;25.00;86.90
55436;DHT22;41307;53.142;6.430;2022-07-23T14:17:49;25.00;86.40
55436;DHT22;41307;53.142;6.430;2022-07-23T14:20:15;25.00;85.90
55436;DHT22;41307;53.142;6.430;2022-07-23T14:22:42;25.00;85.90
55436;DHT22;41307;53.142;6.430;2022-07-23T14:25:09;24.70;85.50
55436;DHT22;41307;53.142;6.430;2022-07-23T14:27:35;24.80;86.40
55436;DHT22;41307;53.142;6.430;2022-07-23T14:30:03;24.70;86.30
55436;DHT22;41307;53.142;6.430;2022-07-23T14:32:29;24.60;85.70
55436;DHT22;41307;53.142;6.430;2022-07-23T14:34:55;24.70;86.70
55436;DHT22;41307;53.142;6.430;2022-07-23T14:37:21;24.60;86.30
55436;DHT22;41307;53.142;6.430;2022-07-23T14:39:47;24.80;86.80
55436;DHT22;41307;53.142;6.430;2022-07-23T14:42:13;24.90;86.60
55436;DHT22;41307;53.142;6.430;2022-07-23T14:44:39;24.90;86.50
55436;DHT22;41307;53.142;6.430;2022-07-23T14:47:05;24.90;86.00
55436;DHT22;41307;53.142;6.430;2022-07-23T14:49:31;24.90;85.80
55436;DHT22;41307;53.142;6.430;2022-07-23T14:51:58;24.60;86.10
55436;DHT22;41307;53.142;6.430;2022-07-23T14:54:25;24.60;86.80
55436;DHT22;41307;53.142;6.430;2022-07-23T14:56:53;24.50;87.50
55436;DHT22;41307;53.142;6.430;2022-07-23T14:59:19;24.40;87.30
55436;DHT22;41307;53.142;6.430;2022-07-23T15:01:44;24.30;86.90
55436;DHT22;41307;53.142;6.430;2022-07-23T15:04:10;24.20;87.60
55436;DHT22;41307;53.142;6.430;2022-07-23T15:06:36;24.10;88.70
55436;DHT22;41307;53.142;6.430;2022-07-23T15:09:02;24.20;89.50
55436;DHT22;41307;53.142;6.430;2022-07-23T15:11:28;24.30;89.40
55436;DHT22;41307;53.142;6.430;2022-07-23T15:13:56;24.30;88.40
55436;DHT22;41307;53.142;6.430;2022-07-23T15:16:22;24.30;88.10
55436;DHT22;41307;53.142;6.430;2022-07-23T15:18:48;24.40;88.60
55436;DHT22;41307;53.142;6.430;2022-07-23T15:21:13;24.40;88.70
55436;DHT22;41307;53.142;6.430;2022-07-23T15:23:39;24.50;88.20
55436;DHT22;41307;53.142;6.430;2022-07-23T15:26:06;24.50;88.40
55436;DHT22;41307;53.142;6.430;2022-07-23T15:28:33;24.50;87.50
55436;DHT22;41307;53.142;6.430;2022-07-23T15:30:59;24.50;87.50
55436;DHT22;41307;53.142;6.430;2022-07-23T15:33:25;24.40;87.30
55436;DHT22;41307;53.142;6.430;2022-07-23T15:35:51;24.40;87.70
55436;DHT22;41307;53.142;6.430;2022-07-23T15:38:18;24.40;88.00
55436;DHT22;41307;53.142;6.430;2022-07-23T15:40:44;24.40;88.50
55436;DHT22;41307;53.142;6.430;2022-07-23T15:43:09;24.40;87.70
55436;DHT22;41307;53.142;6.430;2022-07-23T15:45:35;24.40;87.80
55436;DHT22;41307;53.142;6.430;2022-07-23T15:48:01;24.40;88.30
55436;DHT22;41307;53.142;6.430;2022-07-23T15:50:27;24.40;87.90
55436;DHT22;41307;53.142;6.430;2022-07-23T15:52:53;24.30;88.00
55436;DHT22;41307;53.142;6.430;2022-07-23T15:55:19;24.20;88.50
55436;DHT22;41307;53.142;6.430;2022-07-23T15:57:45;24.20;88.80
55436;DHT22;41307;53.142;6.430;2022-07-23T16:00:11;24.10;88.80
55436;DHT22;41307;53.142;6.430;2022-07-23T16:02:37;24.00;89.00